Time;durP1;ratioP1;P1;durP2;ratioP2;P2;SDS_P1;SDS_P2;PMS_P1;PMS_P2;Temp;Humidity;BMP_temperature;BMP_pressure;BME280_temperature;BME280_humidity;BME280_pressure;Samples;Min_cycle;Max_cycle;Signal;HPM_P1;HPM_P2
2022/09/27 00:02:11;;;;;;;7.90;3.90;;;9.80;99.90;;;;;;6309145;22;20841;-66
2022/09/27 00:04:39;;;;;;;5.20;3.90;;;9.80;99.90;;;;;;6309750;22;20749;-66
2022/09/27 00:07:07;;;;;;;4.43;3.87;;;9.80;99.90;;;;;;6309512;22;20920;-66
2022/09/27 00:09:37;;;;;;;4.97;4.10;;;9.80;99.90;;;;;;6304917;22;20420;-66
2022/09/27 00:12:05;;;;;;;5.30;4.60;;;9.80;99.90;;;;;;6309583;22;20584;-65
2022/09/27 00:14:35;;;;;;;5.87;4.70;;;9.80;99.90;;;;;;6311290;22;20522;-64
2022/09/27 00:17:05;;;;;;;5.63;4.77;;;9.80;99.90;;;;;;6312230;22;20498;-65
2022/09/27 00:19:35;;;;;;;5.70;4.10;;;9.80;99.90;;;;;;6311199;22;20431;-65
2022/09/27 00:22:04;;;;;;;10.50;4.87;;;9.80;99.90;;;;;;6311182;22;20485;-65
2022/09/27 00:24:33;;;;;;;6.67;4.37;;;9.80;99.90;;;;;;6311185;22;20445;-66
2022/09/27 00:27:00;;;;;;;7.40;4.80;;;9.80;99.90;;;;;;6311885;22;20420;-66
2022/09/27 00:29:27;;;;;;;6.00;4.60;;;9.80;99.90;;;;;;6311357;22;20423;-66
2022/09/27 00:31:56;;;;;;;5.00;4.30;;;9.80;99.90;;;;;;6311317;22;20399;-65
2022/09/27 00:34:25;;;;;;;8.23;6.43;;;9.70;99.90;;;;;;6310665;22;20454;-66
2022/09/27 00:36:54;;;;;;;6.77;5.40;;;9.70;99.90;;;;;;6311942;22;20416;-66
2022/09/27 00:39:22;;;;;;;6.40;5.77;;;9.70;99.90;;;;;;6311324;22;20391;-66
2022/09/27 00:41:51;;;;;;;6.23;5.33;;;9.70;99.90;;;;;;6311132;22;20415;-65
2022/09/27 00:44:55;;;;;;;9.60;5.77;;;9.60;99.90;;;;;;6310898;22;20689;-65
2022/09/27 00:47:33;;;;;;;8.50;6.60;;;9.70;99.90;;;;;;6311109;22;20411;-65
2022/09/27 00:50:05;;;;;;;8.70;7.00;;;9.60;99.90;;;;;;6310833;22;20454;-64
2022/09/27 00:52:42;;;;;;;11.57;7.00;;;9.60;99.90;;;;;;6311690;22;20501;-64
2022/09/27 00:55:15;;;;;;;7.83;6.93;;;9.70;99.90;;;;;;6311271;22;20448;-65
2022/09/27 00:57:48;;;;;;;12.30;6.87;;;9.70;99.90;;;;;;6310985;22;20835;-65
2022/09/27 01:00:16;;;;;;;9.63;7.13;;;9.70;99.90;;;;;;6311123;22;20420;-65
2022/09/27 01:02:47;;;;;;;11.43;6.73;;;9.70;99.90;;;;;;6312016;22;20756;-65
2022/09/27 01:05:17;;;;;;;9.37;6.87;;;9.70;99.90;;;;;;6310393;22;20412;-63
2022/09/27 01:07:44;;;;;;;8.33;6.87;;;9.70;99.90;;;;;;6311308;22;20416;-62
2022/09/27 01:10:12;;;;;;;7.30;6.13;;;9.60;99.90;;;;;;6311177;22;20420;-62
2022/09/27 01:12:53;;;;;;;10.20;6.53;;;9.70;99.90;;;;;;6311662;22;20398;-62
2022/09/27 01:15:30;;;;;;;9.00;6.33;;;9.60;99.90;;;;;;6309431;22;20444;-62
2022/09/27 01:18:21;;;;;;;7.10;5.50;;;9.60;99.90;;;;;;6310919;22;20412;-62
2022/09/27 01:21:08;;;;;;;9.43;5.77;;;9.60;99.90;;;;;;6311506;22;20398;-62
2022/09/27 01:24:08;;;;;;;7.07;5.97;;;9.60;99.90;;;;;;6310293;22;20393;-62
2022/09/27 01:27:03;;;;;;;9.30;6.50;;;9.60;99.90;;;;;;6298731;22;20719;-63
2022/09/27 01:29:42;;;;;;;7.07;5.40;;;9.50;99.90;;;;;;6309704;22;20416;-64
2022/09/27 01:32:22;;;;;;;7.20;6.50;;;9.60;99.90;;;;;;6310898;22;20462;-62
2022/09/27 01:34:57;;;;;;;7.90;6.70;;;9.60;99.90;;;;;;6310822;22;20450;-63
2022/09/27 01:37:32;;;;;;;10.67;7.13;;;9.60;99.90;;;;;;6310260;22;20837;-62
2022/09/27 01:40:09;;;;;;;8.60;7.20;;;9.70;99.90;;;;;;6310749;22;20423;-63
2022/09/27 01:42:43;;;;;;;12.77;8.60;;;9.60;99.90;;;;;;6310900;22;20394;-62
2022/09/27 01:45:20;;;;;;;9.90;8.73;;;9.70;99.90;;;;;;6310710;22;20382;-62
2022/09/27 01:47:52;;;;;;;14.00;10.00;;;9.70;99.90;;;;;;6310203;22;20779;-62
2022/09/27 01:50:26;;;;;;;12.80;10.43;;;9.70;99.90;;;;;;6310512;22;20399;-63
2022/09/27 01:52:57;;;;;;;10.97;9.53;;;9.60;99.90;;;;;;6311137;22;20398;-62
2022/09/27 01:55:28;;;;;;;17.03;10.87;;;9.60;99.90;;;;;;6310104;22;20426;-65
2022/09/27 01:58:01;;;;;;;14.60;11.80;;;9.60;99.90;;;;;;6309989;22;20519;-66
2022/09/27 02:00:28;;;;;;;15.00;11.37;;;9.50;99.90;;;;;;6310109;22;20453;-66
2022/09/27 02:03:04;;;;;;;14.20;12.40;;;9.50;99.90;;;;;;6310455;22;20427;-65
2022/09/27 02:05:37;;;;;;;14.50;11.30;;;9.60;99.90;;;;;;6310189;22;20422;-64
2022/09/27 02:08:11;;;;;;;14.53;11.97;;;9.50;99.90;;;;;;6310426;22;20395;-65
2022/09/27 02:10:43;;;;;;;15.10;10.47;;;9.50;99.90;;;;;;6310194;22;20447;-65
2022/09/27 02:13:19;;;;;;;16.20;11.70;;;9.50;99.90;;;;;;6310234;22;20850;-65
2022/09/27 02:15:56;;;;;;;15.80;11.73;;;9.50;99.90;;;;;;6310160;22;20497;-65
2022/09/27 02:18:38;;;;;;;14.13;11.77;;;9.40;99.90;;;;;;6310175;22;20424;-64
2022/09/27 02:21:10;;;;;;;12.63;10.80;;;9.40;99.90;;;;;;6310012;22;20470;-64
2022/09/27 02:23:45;;;;;;;14.63;11.40;;;9.40;99.90;;;;;;6309577;22;20391;-64
2022/09/27 02:26:16;;;;;;;14.23;10.73;;;9.50;99.90;;;;;;6310821;22;20411;-65
2022/09/27 02:28:48;;;;;;;13.00;10.20;;;9.40;99.90;;;;;;6310440;22;20416;-64
2022/09/27 02:31:16;;;;;;;11.53;10.17;;;9.40;99.90;;;;;;6310115;22;20427;-64
2022/09/27 02:33:50;;;;;;;11.10;10.00;;;9.40;99.90;;;;;;6310428;22;20423;-64
2022/09/27 02:36:21;;;;;;;11.40;10.20;;;9.40;99.90;;;;;;6310633;22;20900;-64
2022/09/27 02:39:00;;;;;;;11.33;10.23;;;9.40;99.90;;;;;;6310388;22;20443;-64
2022/09/27 02:41:28;;;;;;;11.80;9.50;;;9.40;99.90;;;;;;6309084;22;20765;-64
2022/09/27 02:43:59;;;;;;;13.30;10.07;;;9.40;99.90;;;;;;6310107;22;20397;-64
2022/09/27 02:46:44;;;;;;;12.87;11.20;;;9.40;99.90;;;;;;6309829;22;20420;-64
2022/09/27 02:49:27;;;;;;;14.20;11.13;;;9.40;99.90;;;;;;6309959;22;20412;-64
2022/09/27 02:52:06;;;;;;;12.53;11.10;;;9.50;99.90;;;;;;6310288;22;20416;-64
2022/09/27 02:54:47;;;;;;;11.70;10.20;;;9.50;99.90;;;;;;6310115;22;20923;-64
2022/09/27 02:57:29;;;;;;;12.33;9.90;;;9.40;99.90;;;;;;6308230;22;20559;-62
2022/09/27 03:00:06;;;;;;;10.63;9.30;;;9.40;99.90;;;;;;6308464;22;20420;-63
2022/09/27 03:02:38;;;;;;;15.23;10.10;;;9.40;99.90;;;;;;6309643;22;20431;-65
2022/09/27 03:05:12;;;;;;;11.23;9.63;;;9.40;99.90;;;;;;6310280;22;20764;-66
2022/09/27 03:07:39;;;;;;;11.10;9.30;;;9.40;99.90;;;;;;6309659;22;20416;-65
2022/09/27 03:10:07;;;;;;;12.80;9.97;;;9.40;99.90;;;;;;6308507;22;20391;-65
2022/09/27 03:12:35;;;;;;;11.97;9.80;;;9.40;99.90;;;;;;6309818;22;20391;-65
2022/09/27 03:15:03;;;;;;;12.50;10.77;;;9.30;99.90;;;;;;6307683;22;20535;-64
2022/09/27 03:17:30;;;;;;;13.67;10.73;;;9.30;99.90;;;;;;6307201;22;20901;-64
2022/09/27 03:19:57;;;;;;;12.00;10.23;;;9.30;99.90;;;;;;6308430;22;20417;-64
2022/09/27 03:22:29;;;;;;;15.93;10.63;;;9.30;99.90;;;;;;6308963;22;20873;-64
2022/09/27 03:24:56;;;;;;;13.90;10.80;;;9.30;99.90;;;;;;6308396;22;20811;-64
2022/09/27 03:27:26;;;;;;;12.30;10.17;;;9.40;99.90;;;;;;6308733;22;20502;-64
2022/09/27 03:29:54;;;;;;;14.93;10.50;;;9.30;99.90;;;;;;6307970;22;20397;-64
2022/09/27 03:32:21;;;;;;;12.77;11.20;;;9.40;99.90;;;;;;6308458;22;20440;-65
2022/09/27 03:34:48;;;;;;;12.53;11.03;;;9.30;99.90;;;;;;6308313;22;20490;-65
2022/09/27 03:37:16;;;;;;;12.40;10.27;;;9.30;99.90;;;;;;6308053;22;20420;-65
2022/09/27 03:39:46;;;;;;;14.47;9.97;;;9.30;99.90;;;;;;6307197;22;20718;-66
2022/09/27 03:42:13;;;;;;;12.17;10.80;;;9.30;99.90;;;;;;6307713;22;20417;-65
2022/09/27 03:44:41;;;;;;;10.40;9.30;;;9.30;99.90;;;;;;6307483;22;20410;-66
2022/09/27 03:47:09;;;;;;;11.80;10.60;;;9.40;99.90;;;;;;6308005;22;20783;-66
2022/09/27 03:49:37;;;;;;;11.20;9.73;;;9.30;99.90;;;;;;6308118;22;20452;-65
2022/09/27 03:52:04;;;;;;;9.80;8.80;;;9.30;99.90;;;;;;6308572;22;20412;-64
2022/09/27 03:54:32;;;;;;;10.03;9.00;;;9.30;99.90;;;;;;6308927;22;20844;-64
2022/09/27 03:57:00;;;;;;;11.20;9.40;;;9.20;99.90;;;;;;6309758;22;20459;-64
2022/09/27 03:59:28;;;;;;;11.70;9.47;;;9.20;99.90;;;;;;6308810;22;20416;-64
2022/09/27 04:01:55;;;;;;;11.23;8.97;;;9.20;99.90;;;;;;6307932;22;20493;-64
2022/09/27 04:04:22;;;;;;;9.27;8.20;;;9.20;99.90;;;;;;6309208;22;20395;-64
2022/09/27 04:06:52;;;;;;;12.77;8.93;;;9.10;99.90;;;;;;6309485;22;20463;-64
2022/09/27 04:09:20;;;;;;;9.90;8.20;;;9.00;99.90;;;;;;6308523;22;20912;-63
2022/09/27 04:11:47;;;;;;;9.40;8.40;;;9.00;99.90;;;;;;6308469;22;20417;-64
2022/09/27 04:14:16;;;;;;;15.33;9.60;;;9.00;99.90;;;;;;6309209;22;20453;-63
2022/09/27 04:16:43;;;;;;;10.57;9.43;;;9.10;99.90;;;;;;6309584;22;20462;-63
2022/09/27 04:19:12;;;;;;;12.23;10.50;;;9.20;99.90;;;;;;6308714;22;20395;-64
2022/09/27 04:21:42;;;;;;;13.40;12.00;;;9.20;99.90;;;;;;6308716;22;20416;-64
2022/09/27 04:24:12;;;;;;;16.77;13.90;;;9.20;99.90;;;;;;6308975;22;20478;-64
2022/09/27 04:26:39;;;;;;;17.00;14.00;;;9.20;99.90;;;;;;6309155;22;20684;-63
2022/09/27 04:29:08;;;;;;;18.70;15.20;;;9.20;99.90;;;;;;6310029;22;20417;-63
2022/09/27 04:31:37;;;;;;;19.03;14.30;;;9.30;99.90;;;;;;6308689;22;20924;-63
2022/09/27 04:34:05;;;;;;;15.80;14.10;;;9.30;99.90;;;;;;6309497;22;20416;-63
2022/09/27 04:36:34;;;;;;;14.63;11.67;;;9.20;99.90;;;;;;6309754;22;20423;-63
2022/09/27 04:39:06;;;;;;;16.70;9.93;;;9.20;99.90;;;;;;6310089;22;20512;-63
2022/09/27 04:41:34;;;;;;;11.00;8.70;;;9.20;99.90;;;;;;6308845;22;20416;-63
2022/09/27 04:44:02;;;;;;;11.13;8.93;;;9.20;99.90;;;;;;6308541;22;20416;-63
2022/09/27 04:46:31;;;;;;;7.70;6.90;;;9.10;99.90;;;;;;6309659;22;20450;-63
2022/09/27 04:49:01;;;;;;;10.83;7.17;;;9.10;99.90;;;;;;6309236;22;20474;-63
2022/09/27 04:51:28;;;;;;;8.00;6.47;;;9.10;99.90;;;;;;6308949;22;20416;-63
2022/09/27 04:53:59;;;;;;;11.80;7.57;;;9.00;99.90;;;;;;6308668;22;20712;-62
2022/09/27 04:56:26;;;;;;;10.23;6.30;;;9.00;99.90;;;;;;6308989;22;20418;-63
2022/09/27 04:59:02;;;;;;;11.17;6.63;;;9.00;99.90;;;;;;6309031;22;20420;-63
2022/09/27 05:01:29;;;;;;;7.20;6.50;;;9.00;99.90;;;;;;6310932;22;20764;-63
2022/09/27 05:03:56;;;;;;;6.97;6.20;;;9.00;99.90;;;;;;6308735;22;20395;-63
2022/09/27 05:06:25;;;;;;;8.43;5.77;;;9.00;99.90;;;;;;6308936;22;20474;-63
2022/09/27 05:08:53;;;;;;;15.93;6.90;;;9.00;99.90;;;;;;6310639;22;20778;-63
2022/09/27 05:11:21;;;;;;;8.63;7.00;;;9.00;99.90;;;;;;6310515;22;20420;-63
2022/09/27 05:13:49;;;;;;;7.93;6.73;;;9.00;99.90;;;;;;6310124;22;20709;-62
2022/09/27 05:16:17;;;;;;;6.40;5.73;;;9.10;99.90;;;;;;6310427;22;20448;-63
2022/09/27 05:18:44;;;;;;;7.90;5.80;;;9.00;99.90;;;;;;6311453;22;20788;-54
2022/09/27 05:21:12;;;;;;;7.83;6.37;;;9.00;99.90;;;;;;6310490;22;20391;-64
2022/09/27 05:23:42;;;;;;;7.80;6.53;;;9.00;99.90;;;;;;6308422;22;20838;-59
2022/09/27 05:26:11;;;;;;;8.80;6.10;;;8.90;99.90;;;;;;6309275;22;20408;-62
2022/09/27 05:28:41;;;;;;;7.43;5.40;;;8.90;99.90;;;;;;6310375;22;20424;-62
2022/09/27 05:31:10;;;;;;;6.93;5.20;;;8.90;99.90;;;;;;6310363;22;20420;-62
2022/09/27 05:33:37;;;;;;;7.47;5.87;;;8.80;99.90;;;;;;6309943;22;20428;-62
2022/09/27 05:36:05;;;;;;;9.40;6.10;;;8.90;99.90;;;;;;6309946;22;20445;-62
2022/09/27 05:38:32;;;;;;;5.80;5.20;;;8.90;99.90;;;;;;6310355;22;20427;-60
2022/09/27 05:41:04;;;;;;;7.90;5.70;;;8.90;99.90;;;;;;6310681;22;20412;-61
2022/09/27 05:43:31;;;;;;;7.43;5.67;;;8.90;99.90;;;;;;6310375;22;20416;-61
2022/09/27 05:45:59;;;;;;;7.67;5.43;;;8.90;99.90;;;;;;6308555;22;20391;-61
2022/09/27 05:48:27;;;;;;;6.47;5.87;;;8.90;99.90;;;;;;6308907;22;20499;-61
2022/09/27 05:50:54;;;;;;;10.00;5.40;;;8.90;99.90;;;;;;6308038;22;20420;-61
2022/09/27 05:53:21;;;;;;;11.30;5.90;;;8.90;99.90;;;;;;6308883;22;20417;-62
2022/09/27 05:55:50;;;;;;;9.93;5.90;;;8.90;99.90;;;;;;6309584;22;20452;-61
2022/09/27 05:58:21;;;;;;;8.33;5.87;;;8.90;99.90;;;;;;6310238;22;20479;-61
2022/09/27 06:00:48;;;;;;;7.57;5.80;;;8.90;99.90;;;;;;6310977;22;20726;-61
2022/09/27 06:03:15;;;;;;;7.50;4.70;;;8.90;99.90;;;;;;6310088;22;20911;-59
2022/09/27 06:05:43;;;;;;;10.00;4.40;;;8.80;99.90;;;;;;6309541;22;20447;-60
2022/09/27 06:08:14;;;;;;;5.27;3.97;;;8.90;99.90;;;;;;6309838;22;20700;-61
2022/09/27 06:10:41;;;;;;;8.50;5.07;;;8.90;99.90;;;;;;6309518;22;20411;-61
2022/09/27 06:13:15;;;;;;;6.67;5.27;;;8.90;99.90;;;;;;6310421;22;20434;-59
2022/09/27 06:15:50;;;;;;;7.60;4.30;;;8.90;99.90;;;;;;6310000;22;20451;-57
2022/09/27 06:18:19;;;;;;;7.43;4.10;;;8.90;99.90;;;;;;6310741;22;20914;-60
2022/09/27 06:20:46;;;;;;;4.43;3.87;;;8.90;99.90;;;;;;6309843;22;20455;-60
2022/09/27 06:23:16;;;;;;;6.43;4.27;;;8.90;99.90;;;;;;6310570;22;20412;-59
2022/09/27 06:25:46;;;;;;;7.20;4.10;;;8.90;99.90;;;;;;6309007;22;20476;-59
2022/09/27 06:28:14;;;;;;;7.23;4.60;;;8.90;99.90;;;;;;6310283;22;20702;-60
2022/09/27 06:30:43;;;;;;;8.70;4.60;;;8.90;99.90;;;;;;6310649;22;20420;-61
2022/09/27 06:33:13;;;;;;;7.33;3.80;;;9.00;99.90;;;;;;6310559;22;20416;-59
2022/09/27 06:35:44;;;;;;;6.63;4.10;;;9.00;99.90;;;;;;6310127;22;20898;-59
2022/09/27 06:38:14;;;;;;;9.30;4.60;;;8.90;99.90;;;;;;6310117;22;20420;-61
2022/09/27 06:40:44;;;;;;;8.67;4.93;;;9.00;99.90;;;;;;6309909;22;20393;-58
2022/09/27 06:43:13;;;;;;;7.17;3.97;;;9.00;99.90;;;;;;6309504;22;20420;-61
2022/09/27 06:45:41;;;;;;;6.03;3.23;;;9.10;99.90;;;;;;6309990;22;20402;-60
2022/09/27 06:48:14;;;;;;;7.00;4.57;;;9.10;99.90;;;;;;6309147;22;20424;-61
2022/09/27 06:50:44;;;;;;;11.77;6.47;;;9.10;99.90;;;;;;6309316;22;20398;-61
2022/09/27 06:53:12;;;;;;;6.07;4.40;;;9.10;99.90;;;;;;6309821;22;20416;-59
2022/09/27 06:55:40;;;;;;;11.30;5.10;;;9.20;99.90;;;;;;6309896;22;20451;-58
2022/09/27 07:00:54;;;;;;;5.53;4.70;;;9.20;99.90;;;;;;6309953;22;20396;-57
2022/09/27 07:03:30;;;;;;;5.83;3.60;;;9.20;99.90;;;;;;6309373;22;20449;-61
2022/09/27 07:05:59;;;;;;;8.20;4.60;;;9.20;99.90;;;;;;6309696;22;20412;-57
2022/09/27 07:08:27;;;;;;;5.63;4.13;;;9.30;99.90;;;;;;6310326;22;20395;-63
2022/09/27 07:11:01;;;;;;;4.80;3.60;;;9.30;99.90;;;;;;6309912;22;20416;-62
2022/09/27 07:13:30;;;;;;;8.30;3.77;;;9.20;99.90;;;;;;6308462;22;20473;-61
2022/09/27 07:15:59;;;;;;;5.37;3.63;;;9.20;99.90;;;;;;6309056;22;20530;-62
2022/09/27 07:18:28;;;;;;;5.40;3.30;;;9.10;99.90;;;;;;6309538;22;20474;-62
2022/09/27 07:20:57;;;;;;;4.27;3.80;;;9.10;99.90;;;;;;6307513;22;20416;-62
2022/09/27 07:23:29;;;;;;;7.13;3.17;;;9.10;99.90;;;;;;6308797;22;20416;-60
2022/09/27 07:25:56;;;;;;;3.93;3.00;;;9.10;99.90;;;;;;6276872;22;20483;-60
2022/09/27 07:28:24;;;;;;;4.40;3.40;;;9.00;99.90;;;;;;6275098;22;20396;-62
2022/09/27 07:30:57;;;;;;;5.80;3.20;;;9.10;99.90;;;;;;6276057;22;20843;-58
2022/09/27 07:33:25;;;;;;;4.93;3.67;;;9.10;99.90;;;;;;6277964;22;20854;-57
2022/09/27 07:35:53;;;;;;;6.73;3.00;;;9.10;99.90;;;;;;6277659;22;20449;-61
2022/09/27 07:38:21;;;;;;;4.30;2.90;;;9.20;99.90;;;;;;6277311;22;20897;-62
2022/09/27 07:40:49;;;;;;;4.47;3.30;;;9.20;99.90;;;;;;6278371;22;20409;-61
2022/09/27 07:43:16;;;;;;;7.43;2.90;;;9.30;99.90;;;;;;6278604;22;20441;-59
2022/09/27 07:45:45;;;;;;;4.37;3.27;;;9.40;99.90;;;;;;6278503;22;20861;-62
2022/09/27 07:48:16;;;;;;;5.93;3.00;;;9.40;99.90;;;;;;6278600;22;20779;-61
2022/09/27 07:50:44;;;;;;;4.40;2.90;;;9.40;99.90;;;;;;6277571;22;20882;-60
2022/09/27 07:53:13;;;;;;;9.57;4.80;;;9.50;99.90;;;;;;6279055;22;20409;-61
2022/09/27 07:55:41;;;;;;;3.87;3.47;;;9.60;99.90;;;;;;6277534;22;20392;-62
2022/09/27 07:58:10;;;;;;;4.97;3.90;;;9.60;99.90;;;;;;6278737;22;20908;-62
2022/09/27 08:00:39;;;;;;;4.37;3.40;;;9.70;99.90;;;;;;6278464;22;20726;-62
2022/09/27 08:03:07;;;;;;;3.80;3.30;;;9.70;99.90;;;;;;6277754;22;20771;-62
2022/09/27 08:05:36;;;;;;;3.40;3.00;;;9.70;99.90;;;;;;6278403;22;20421;-62
2022/09/27 08:08:06;;;;;;;4.17;2.93;;;9.80;99.90;;;;;;6277561;22;20395;-60
2022/09/27 08:10:36;;;;;;;5.80;4.07;;;9.70;99.90;;;;;;6278722;22;20396;-62
2022/09/27 08:13:04;;;;;;;4.80;3.20;;;9.70;99.90;;;;;;6278234;22;20417;-62
2022/09/27 08:15:32;;;;;;;4.57;2.70;;;9.60;99.90;;;;;;6278416;22;20475;-62
2022/09/27 08:17:59;;;;;;;5.60;2.60;;;9.60;99.90;;;;;;6278363;22;20757;-62
2022/09/27 08:20:30;;;;;;;5.70;3.20;;;9.70;99.90;;;;;;6275495;22;20760;-61
2022/09/27 08:22:57;;;;;;;3.83;3.13;;;9.70;99.90;;;;;;6276922;22;20420;-61
2022/09/27 08:25:29;;;;;;;4.60;2.83;;;9.80;99.90;;;;;;6302389;22;20437;-58
2022/09/27 08:27:59;;;;;;;4.47;2.73;;;9.60;99.90;;;;;;6309035;22;20387;-60
2022/09/27 08:30:31;;;;;;;6.23;2.93;;;9.50;99.90;;;;;;6309652;22;20579;-60
2022/09/27 08:33:01;;;;;;;6.90;2.80;;;9.50;99.90;;;;;;6310459;22;20416;-60
2022/09/27 08:35:32;;;;;;;3.33;2.10;;;9.40;99.90;;;;;;6310871;22;20446;-61
2022/09/27 08:38:08;;;;;;;3.70;2.27;;;9.50;99.90;;;;;;6309187;22;20491;-60
2022/09/27 08:40:50;;;;;;;4.83;2.43;;;9.40;99.90;;;;;;6309790;22;20398;-61
2022/09/27 08:43:44;;;;;;;4.70;2.43;;;9.50;99.90;;;;;;6309303;22;20391;-61
2022/09/27 08:46:25;;;;;;;5.90;2.43;;;9.50;99.90;;;;;;6309820;22;20459;-59
2022/09/27 08:48:57;;;;;;;4.60;2.70;;;9.40;99.90;;;;;;6310729;22;20502;-60
2022/09/27 08:51:29;;;;;;;3.73;2.07;;;9.40;99.90;;;;;;6310558;22;20416;-58
2022/09/27 08:54:03;;;;;;;4.70;2.27;;;9.40;99.90;;;;;;6311229;22;20424;-59
2022/09/27 08:56:32;;;;;;;9.37;3.37;;;9.40;99.90;;;;;;6310361;22;20754;-60
2022/09/27 08:59:06;;;;;;;8.17;2.50;;;9.40;99.90;;;;;;6310944;22;20452;-59
2022/09/27 09:01:35;;;;;;;3.27;2.20;;;9.50;99.90;;;;;;6310904;22;20400;-60
2022/09/27 09:04:04;;;;;;;3.53;2.47;;;9.60;99.90;;;;;;6311325;22;20474;-61
2022/09/27 09:06:39;;;;;;;3.63;2.40;;;9.80;99.90;;;;;;6311237;22;20423;-61
2022/09/27 09:09:21;;;;;;;2.90;2.03;;;9.90;99.90;;;;;;6311270;22;20809;-61
2022/09/27 09:15:10;;;;;;;3.13;2.30;;;9.70;99.90;;;;;;6311147;22;20398;-60
2022/09/27 09:17:54;;;;;;;3.40;2.90;;;9.70;99.90;;;;;;6295152;22;20523;-59
2022/09/27 09:20:34;;;;;;;4.40;2.57;;;9.80;99.90;;;;;;6309917;22;20854;-59
2022/09/27 09:23:25;;;;;;;4.10;2.63;;;9.80;99.90;;;;;;6311200;22;20760;-60
2022/09/27 09:26:02;;;;;;;3.33;2.80;;;9.80;99.90;;;;;;6305390;22;20433;-61
2022/09/27 09:28:42;;;;;;;3.67;2.40;;;9.90;99.90;;;;;;6310440;22;20423;-59
2022/09/27 09:31:20;;;;;;;3.37;2.50;;;9.90;99.90;;;;;;6310915;22;20391;-62
2022/09/27 09:33:54;;;;;;;3.20;2.23;;;9.90;99.90;;;;;;6308929;22;20458;-61
2022/09/27 09:36:27;;;;;;;3.33;2.20;;;10.10;99.90;;;;;;6310121;22;20391;-61
2022/09/27 09:38:58;;;;;;;6.67;2.83;;;10.10;99.90;;;;;;6311343;22;20391;-62
2022/09/27 09:41:29;;;;;;;3.50;2.30;;;10.00;99.90;;;;;;6309981;22;20481;-61
2022/09/27 09:44:02;;;;;;;2.57;2.30;;;10.00;99.90;;;;;;6310205;22;20452;-57
2022/09/27 09:46:39;;;;;;;4.70;2.00;;;9.90;99.90;;;;;;6310717;22;20393;-59
2022/09/27 09:49:19;;;;;;;3.33;2.93;;;9.90;99.90;;;;;;6310948;22;20405;-60
2022/09/27 09:51:51;;;;;;;2.40;2.20;;;9.80;99.90;;;;;;6309327;22;20838;-57
2022/09/27 09:54:27;;;;;;;3.00;2.57;;;9.70;99.90;;;;;;6309432;22;20735;-57
2022/09/27 09:57:02;;;;;;;3.33;2.60;;;9.90;99.90;;;;;;6311079;22;20443;-61
2022/09/27 09:59:35;;;;;;;3.83;2.80;;;10.20;99.90;;;;;;6310145;22;20422;-62
2022/09/27 10:02:23;;;;;;;4.20;2.93;;;10.40;99.90;;;;;;6309232;22;20420;-61
2022/09/27 10:04:52;;;;;;;5.07;2.90;;;10.70;99.90;;;;;;6310007;22;20390;-62
2022/09/27 10:07:22;;;;;;;3.80;3.00;;;10.90;99.90;;;;;;6310040;22;20416;-63
2022/09/27 10:09:50;;;;;;;3.63;2.77;;;11.10;99.90;;;;;;6310513;22;20416;-62
2022/09/27 10:12:18;;;;;;;3.03;2.60;;;11.20;99.90;;;;;;6309896;22;20427;-57
2022/09/27 10:14:50;;;;;;;3.23;2.47;;;11.40;99.90;;;;;;6309671;22;20417;-58
2022/09/27 10:17:23;;;;;;;3.37;2.77;;;11.50;99.90;;;;;;6308887;22;20455;-61
2022/09/27 10:19:58;;;;;;;2.60;2.20;;;11.60;12.60;;;;;;6309779;22;20776;-59
2022/09/27 10:22:31;;;;;;;3.20;2.90;;;11.70;93.80;;;;;;6309615;22;20427;-61
2022/09/27 10:25:09;;;;;;;3.37;3.00;;;11.20;1.00;;;;;;6310406;22;20478;-59
2022/09/27 10:27:55;;;;;;;3.77;2.83;;;11.30;1.00;;;;;;6309334;22;20427;-61
2022/09/27 10:30:30;;;;;;;12.33;3.30;;;11.10;1.00;;;;;;6310492;22;20387;-59
2022/09/27 10:33:03;;;;;;;3.97;3.30;;;11.00;62.90;;;;;;6309989;22;20416;-60
2022/09/27 10:35:40;;;;;;;3.80;3.47;;;11.10;99.90;;;;;;6310180;22;20417;-57
2022/09/27 10:38:23;;;;;;;5.70;3.27;;;11.30;99.90;;;;;;6310079;22;20444;-61
2022/09/27 10:40:52;;;;;;;4.27;3.70;;;11.20;1.00;;;;;;6310000;22;20423;-59
2022/09/27 10:43:27;;;;;;;4.50;3.50;;;11.30;1.00;;;;;;6309701;22;20490;-61
2022/09/27 10:46:03;;;;;;;4.57;3.60;;;11.20;1.00;;;;;;6310292;22;20426;-61
2022/09/27 10:48:35;;;;;;;3.50;3.20;;;11.30;1.00;;;;;;6310128;22;20387;-60
2022/09/27 10:51:04;;;;;;;5.57;3.30;;;11.60;21.90;;;;;;6310025;22;20399;-62
2022/09/27 10:53:34;;;;;;;5.27;3.70;;;11.90;1.00;;;;;;6308228;22;20419;-62
2022/09/27 10:56:05;;;;;;;4.37;3.40;;;12.30;1.00;;;;;;6308724;22;20391;-62
2022/09/27 10:58:37;;;;;;;3.27;2.97;;;12.70;1.00;;;;;;6309438;22;20418;-62
2022/09/27 11:01:08;;;;;;;4.00;2.67;;;12.50;1.00;;;;;;6310247;22;20456;-62
2022/09/27 11:03:47;;;;;;;3.27;2.97;;;12.50;1.00;;;;;;6309667;22;20410;-63
2022/09/27 11:06:28;;;;;;;4.30;3.33;;;12.20;1.00;;;;;;6310335;22;20416;-63
2022/09/27 11:09:10;;;;;;;5.03;3.50;;;11.90;1.00;;;;;;6309676;22;20481;-62
2022/09/27 11:11:38;;;;;;;4.00;3.70;;;11.70;1.00;;;;;;6310125;22;20489;-60
2022/09/27 11:14:16;;;;;;;6.10;2.97;;;11.80;1.00;;;;;;6309117;22;20718;-61
2022/09/27 11:16:54;;;;;;;3.23;2.40;;;12.30;1.00;;;;;;6309725;22;20474;-61
2022/09/27 11:19:43;;;;;;;3.10;2.73;;;12.90;1.00;;;;;;6309089;22;20412;-62
2022/09/27 11:22:34;;;;;;;3.43;2.77;;;13.10;1.00;;;;;;6309873;22;20470;-60
2022/09/27 11:25:13;;;;;;;3.13;2.50;;;13.10;1.00;;;;;;6309007;22;20522;-61
2022/09/27 11:27:55;;;;;;;5.10;2.37;;;12.90;1.00;;;;;;6310399;22;20400;-62
2022/09/27 11:30:24;;;;;;;3.10;1.93;;;12.70;1.00;;;;;;6309894;22;20416;-63
2022/09/27 11:33:20;;;;;;;3.10;2.33;;;12.40;99.90;;;;;;6309909;22;20412;-63
2022/09/27 11:35:59;;;;;;;2.50;2.20;;;12.20;99.90;;;;;;6309128;22;20391;-62
2022/09/27 11:38:32;;;;;;;3.50;2.37;;;12.30;1.00;;;;;;6309717;22;20447;-63
2022/09/27 11:41:21;;;;;;;3.10;2.57;;;12.40;1.00;;;;;;6309198;22;20427;-63
2022/09/27 11:44:26;;;;;;;4.40;2.80;;;12.70;1.00;;;;;;6306998;22;20911;-64
2022/09/27 11:47:05;;;;;;;3.20;2.40;;;12.60;1.00;;;;;;6307171;22;20416;-64
2022/09/27 11:50:07;;;;;;;4.57;3.23;;;12.30;1.00;;;;;;6308129;22;20420;-63
2022/09/27 11:52:48;;;;;;;6.13;3.07;;;12.40;1.00;;;;;;6301221;22;20427;-64
2022/09/27 11:55:38;;;;;;;3.57;2.97;;;12.50;1.00;;;;;;6307685;22;20427;-61
2022/09/27 11:58:19;;;;;;;4.60;2.70;;;12.70;99.90;;;;;;6308434;22;20448;-63
2022/09/27 12:01:02;;;;;;;3.03;2.73;;;12.70;99.90;;;;;;6309593;22;20853;-64
2022/09/27 12:04:02;;;;;;;3.70;2.60;;;13.00;99.90;;;;;;6308238;22;20903;-62
2022/09/27 12:06:39;;;;;;;3.00;2.60;;;13.20;99.90;;;;;;6308096;22;20413;-64
2022/09/27 12:09:11;;;;;;;3.23;2.33;;;13.70;99.90;;;;;;6309299;22;20391;-63
2022/09/27 12:11:43;;;;;;;3.03;2.73;;;13.90;99.90;;;;;;6309429;22;20714;-63
2022/09/27 12:14:18;;;;;;;4.60;2.50;;;13.50;99.90;;;;;;6309547;22;20427;-63
2022/09/27 12:16:47;;;;;;;3.00;2.30;;;13.20;99.90;;;;;;6307622;22;20427;-63
2022/09/27 12:19:20;;;;;;;3.53;2.60;;;13.10;99.90;;;;;;6307455;22;20921;-64
2022/09/27 12:21:50;;;;;;;2.57;2.30;;;12.70;99.90;;;;;;6308361;22;20520;-64
2022/09/27 12:27:10;;;;;;;4.00;2.97;;;12.00;99.90;;;;;;6308036;22;20419;-63
2022/09/27 12:29:40;;;;;;;3.87;2.70;;;12.10;99.90;;;;;;6308755;22;20443;-65
2022/09/27 12:32:12;;;;;;;3.87;3.30;;;12.10;99.90;;;;;;6309246;22;20430;-64
2022/09/27 12:34:45;;;;;;;3.90;2.63;;;12.20;99.90;;;;;;6307971;22;20450;-65
2022/09/27 12:37:19;;;;;;;4.20;3.17;;;12.50;99.90;;;;;;6307354;22;20420;-66
2022/09/27 12:39:56;;;;;;;2.93;2.63;;;12.60;99.90;;;;;;6307025;22;20799;-64
2022/09/27 12:42:27;;;;;;;3.73;3.37;;;12.90;99.90;;;;;;6306937;22;20397;-65
2022/09/27 12:44:55;;;;;;;3.87;2.70;;;13.20;99.90;;;;;;6307066;22;20419;-65
2022/09/27 12:47:48;;;;;;;5.60;3.87;;;13.10;99.90;;;;;;6306487;22;20444;-65
2022/09/27 12:50:25;;;;;;;3.40;2.90;;;13.00;99.90;;;;;;6306375;22;20473;-64
2022/09/27 12:52:56;;;;;;;3.70;3.10;;;13.20;99.90;;;;;;6307827;22;20792;-64
2022/09/27 12:55:50;;;;;;;3.93;2.87;;;13.10;99.90;;;;;;6307298;22;20391;-65
2022/09/27 12:58:52;;;;;;;4.03;3.20;;;12.70;99.90;;;;;;6307850;22;20809;-65
2022/09/27 13:01:38;;;;;;;4.33;3.20;;;12.40;99.90;;;;;;6307574;22;20396;-65
2022/09/27 13:04:29;;;;;;;3.30;3.00;;;12.10;99.90;;;;;;6307817;22;20412;-63
2022/09/27 13:07:17;;;;;;;3.00;2.70;;;11.80;1.00;;;;;;6307192;22;20456;-60
2022/09/27 13:10:05;;;;;;;3.87;2.97;;;11.50;1.00;;;;;;6305130;22;20752;-62
2022/09/27 13:12:34;;;;;;;4.43;3.00;;;10.90;1.00;;;;;;6306725;22;20426;-63
2022/09/27 13:15:05;;;;;;;4.07;3.67;;;10.90;1.00;;;;;;6307309;22;20427;-62
2022/09/27 13:17:49;;;;;;;4.10;3.70;;;11.00;1.00;;;;;;6308322;22;20448;-62
2022/09/27 13:20:47;;;;;;;4.20;3.80;;;11.10;14.00;;;;;;6307767;22;20856;-62
2022/09/27 13:24:00;;;;;;;3.70;3.00;;;11.10;1.00;;;;;;6310584;22;20445;-62
2022/09/27 13:26:49;;;;;;;3.93;3.43;;;10.80;36.00;;;;;;6309106;22;20478;-61
2022/09/27 13:29:33;;;;;;;4.40;4.00;;;10.70;99.90;;;;;;6306798;22;20891;-61
2022/09/27 13:32:22;;;;;;;4.13;3.37;;;10.60;1.00;;;;;;6307224;22;20416;-63